createdAt,value
2023-05-11T00:00:13.741Z,911.00
2023-05-11T00:01:13.769Z,911.00
2023-05-11T00:02:13.873Z,911.00
2023-05-11T00:03:14.031Z,911.00
2023-05-11T00:04:12.885Z,911.00
2023-05-11T00:05:13.847Z,912.00
2023-05-11T00:06:13.856Z,911.00
2023-05-11T00:07:13.875Z,907.00
2023-05-11T00:08:14.948Z,908.00
2023-05-11T00:09:13.878Z,910.00
2023-05-11T00:10:13.829Z,908.00
2023-05-11T00:11:12.870Z,911.00
2023-05-11T00:12:12.828Z,913.00
2023-05-11T00:13:12.811Z,915.00
2023-05-11T00:14:13.845Z,917.00
2023-05-11T00:15:13.896Z,917.00
2023-05-11T00:16:13.837Z,917.00
2023-05-11T00:17:13.795Z,917.00
2023-05-11T00:18:13.798Z,915.00
2023-05-11T00:19:13.777Z,917.00
2023-05-11T00:20:12.788Z,916.00
2023-05-11T00:21:12.760Z,916.00
2023-05-11T00:22:13.754Z,919.00
2023-05-11T00:23:12.740Z,918.00
2023-05-11T00:24:13.740Z,919.00
2023-05-11T00:25:12.721Z,915.00
2023-05-11T00:26:13.725Z,913.00
2023-05-11T00:27:13.723Z,915.00
2023-05-11T00:28:13.708Z,914.00
2023-05-11T00:29:13.695Z,914.00
2023-05-11T00:30:13.690Z,916.00
2023-05-11T00:31:13.688Z,915.00
2023-05-11T00:32:12.645Z,915.00
2023-05-11T00:33:12.644Z,914.00
2023-05-11T00:34:13.633Z,916.00
2023-05-11T00:35:12.627Z,914.00
2023-05-11T00:36:12.613Z,910.00
2023-05-11T00:37:12.616Z,911.00
2023-05-11T00:38:12.722Z,911.00
2023-05-11T00:39:13.599Z,909.00
2023-05-11T00:40:13.578Z,911.00
2023-05-11T00:41:12.604Z,909.00
2023-05-11T00:42:13.566Z,908.00
2023-05-11T00:43:13.608Z,910.00
2023-05-11T00:44:12.564Z,909.00
2023-05-11T00:45:13.555Z,908.00
2023-05-11T00:46:13.559Z,907.00
2023-05-11T00:47:12.575Z,908.00
2023-05-11T00:48:13.533Z,907.00
2023-05-11T00:49:13.536Z,909.00
2023-05-11T00:50:12.521Z,911.00
2023-05-11T00:51:12.512Z,911.00
2023-05-11T00:52:13.502Z,910.00
2023-05-11T00:53:13.491Z,911.00
2023-05-11T00:54:12.495Z,911.00
2023-05-11T00:55:13.507Z,914.00
2023-05-11T00:56:12.484Z,914.00
2023-05-11T00:57:13.463Z,912.00
2023-05-11T00:58:13.459Z,912.00
2023-05-11T00:59:13.486Z,912.00
2023-05-11T01:00:12.459Z,909.00
2023-05-11T01:01:13.499Z,907.00
2023-05-11T01:02:13.498Z,906.00
2023-05-11T01:03:13.486Z,904.00
2023-05-11T01:04:13.428Z,903.00
2023-05-11T01:05:13.405Z,905.00
2023-05-11T01:06:13.404Z,905.00
2023-05-11T01:07:13.396Z,905.00
2023-05-11T01:08:13.393Z,905.00
2023-05-11T01:09:13.412Z,906.00
2023-05-11T01:10:13.381Z,908.00
2023-05-11T01:11:13.388Z,908.00
2023-05-11T01:12:12.367Z,908.00
2023-05-11T01:13:12.345Z,905.00
2023-05-11T01:14:13.356Z,903.00
2023-05-11T01:15:13.381Z,907.00
2023-05-11T01:16:13.408Z,908.00
2023-05-11T01:17:12.333Z,908.00
2023-05-11T01:18:12.362Z,907.00
2023-05-11T01:19:12.439Z,909.00
2023-05-11T01:20:13.324Z,908.00
2023-05-11T01:21:13.313Z,907.00
2023-05-11T01:22:13.285Z,907.00
2023-05-11T01:23:13.285Z,908.00
2023-05-11T01:24:12.309Z,909.00
2023-05-11T01:25:13.309Z,904.00
2023-05-11T01:26:13.328Z,902.00
2023-05-11T01:27:13.317Z,908.00
2023-05-11T01:28:13.332Z,909.00
2023-05-11T01:29:13.354Z,912.00
2023-05-11T01:30:12.368Z,912.00
2023-05-11T01:31:12.396Z,912.00
2023-05-11T01:32:12.447Z,915.00
2023-05-11T01:33:12.543Z,915.00
2023-05-11T01:34:13.409Z,915.00
2023-05-11T01:35:13.409Z,914.00
2023-05-11T01:36:13.434Z,915.00
2023-05-11T01:37:13.424Z,913.00
2023-05-11T01:38:12.416Z,917.00
2023-05-11T01:39:12.457Z,912.00
2023-05-11T01:40:12.446Z,911.00
2023-05-11T01:41:13.457Z,909.00
2023-05-11T01:42:13.463Z,908.00
2023-05-11T01:43:12.453Z,911.00
2023-05-11T01:44:12.470Z,910.00
2023-05-11T01:45:13.472Z,909.00
2023-05-11T01:46:13.492Z,908.00
2023-05-11T01:47:13.508Z,905.00
2023-05-11T01:48:12.491Z,904.00
2023-05-11T01:49:13.522Z,907.00
2023-05-11T01:50:13.550Z,907.00
2023-05-11T01:51:13.507Z,903.00
2023-05-11T01:52:13.520Z,904.00
2023-05-11T01:53:13.517Z,908.00
2023-05-11T01:54:12.524Z,908.00
2023-05-11T01:55:13.550Z,909.00
2023-05-11T01:56:13.554Z,912.00
2023-05-11T01:57:12.554Z,913.00
2023-05-11T01:58:13.572Z,914.00
2023-05-11T01:59:13.596Z,914.00
2023-05-11T02:00:13.602Z,910.00
2023-05-11T02:01:13.684Z,909.00
2023-05-11T02:02:12.659Z,906.00
2023-05-11T02:03:13.725Z,905.00
2023-05-11T02:04:13.666Z,905.00
2023-05-11T02:05:12.650Z,907.00
2023-05-11T02:06:13.691Z,905.00
2023-05-11T02:07:12.670Z,906.00
2023-05-11T02:08:13.703Z,906.00
2023-05-11T02:09:12.731Z,908.00
2023-05-11T02:10:13.747Z,908.00
2023-05-11T02:11:13.725Z,909.00
2023-05-11T02:12:12.725Z,907.00
2023-05-11T02:13:13.756Z,909.00
2023-05-11T02:14:13.756Z,912.00
2023-05-11T02:15:13.810Z,914.00
2023-05-11T02:16:13.825Z,911.00
2023-05-11T02:17:12.801Z,912.00
2023-05-11T02:18:13.808Z,912.00
2023-05-11T02:19:13.854Z,913.00
2023-05-11T02:20:13.812Z,911.00
2023-05-11T02:21:13.822Z,909.00
2023-05-11T02:22:12.843Z,909.00
2023-05-11T02:23:12.895Z,909.00
2023-05-11T02:24:12.878Z,909.00
2023-05-11T02:25:13.914Z,909.00
2023-05-11T02:26:13.920Z,905.00
2023-05-11T02:27:12.969Z,905.00
2023-05-11T02:28:13.940Z,909.00
2023-05-11T02:29:13.933Z,906.00
2023-05-11T02:30:13.957Z,904.00
2023-05-11T02:31:14.010Z,904.00
2023-05-11T02:32:13.982Z,905.00
2023-05-11T02:33:13.985Z,906.00
2023-05-11T02:34:14.013Z,909.00
2023-05-11T02:35:13.084Z,908.00
2023-05-11T02:36:13.041Z,909.00
2023-05-11T02:37:13.077Z,909.00
2023-05-11T02:38:13.084Z,912.00
2023-05-11T02:39:14.107Z,913.00
2023-05-11T02:40:13.107Z,910.00
2023-05-11T02:41:13.133Z,912.00
2023-05-11T02:42:14.159Z,910.00
2023-05-11T02:43:13.164Z,907.00
2023-05-11T02:44:14.176Z,907.00
2023-05-11T02:45:13.207Z,904.00
2023-05-11T02:46:14.240Z,906.00
2023-05-11T02:47:14.245Z,905.00
2023-05-11T02:48:14.241Z,906.00
2023-05-11T02:49:14.296Z,906.00
2023-05-11T02:50:14.286Z,906.00
2023-05-11T02:51:13.311Z,906.00
2023-05-11T02:52:14.310Z,906.00
2023-05-11T02:53:14.318Z,905.00
2023-05-11T02:54:14.386Z,905.00
2023-05-11T02:55:13.342Z,905.00
2023-05-11T02:56:14.350Z,905.00
2023-05-11T02:57:14.386Z,906.00
2023-05-11T02:58:14.423Z,906.00
2023-05-11T02:59:13.443Z,906.00
2023-05-11T03:00:13.465Z,905.00
2023-05-11T03:01:14.555Z,905.00
2023-05-11T03:02:14.581Z,904.00
2023-05-11T03:03:13.641Z,905.00
2023-05-11T03:04:13.591Z,901.00
2023-05-11T03:05:14.602Z,903.00
2023-05-11T03:06:15.225Z,900.00
2023-05-11T03:07:14.666Z,899.00
2023-05-11T03:08:13.679Z,899.00
2023-05-11T03:09:14.697Z,898.00
2023-05-11T03:10:13.712Z,901.00
2023-05-11T03:11:13.718Z,903.00
2023-05-11T03:12:13.734Z,904.00
2023-05-11T03:13:13.740Z,901.00
2023-05-11T03:14:14.765Z,900.00
2023-05-11T03:15:14.800Z,900.00
2023-05-11T03:16:14.806Z,904.00
2023-05-11T03:17:14.813Z,902.00
2023-05-11T03:18:13.839Z,905.00
2023-05-11T03:19:14.846Z,906.00
2023-05-11T03:20:14.966Z,905.00
2023-05-11T03:21:14.913Z,905.00
2023-05-11T03:22:14.907Z,901.00
2023-05-11T03:23:13.927Z,901.00
2023-05-11T03:24:14.930Z,902.00
2023-05-11T03:25:14.967Z,900.00
2023-05-11T03:26:14.978Z,901.00
2023-05-11T03:27:13.948Z,900.00
2023-05-11T03:28:14.963Z,901.00
2023-05-11T03:29:14.011Z,900.00
2023-05-11T03:30:14.004Z,901.00
2023-05-11T03:31:14.039Z,901.00
2023-05-11T03:32:14.092Z,903.00
2023-05-11T03:33:15.046Z,902.00
2023-05-11T03:34:14.057Z,903.00
2023-05-11T03:35:14.069Z,903.00
2023-05-11T03:36:15.068Z,902.00
2023-05-11T03:37:15.079Z,902.00
2023-05-11T03:38:14.094Z,898.00
2023-05-11T03:39:14.127Z,894.00
2023-05-11T03:40:14.075Z,893.00
2023-05-11T03:41:15.092Z,893.00
2023-05-11T03:42:15.095Z,895.00
2023-05-11T03:43:15.116Z,894.00
2023-05-11T03:44:15.125Z,896.00
2023-05-11T03:45:14.118Z,897.00
2023-05-11T03:46:14.135Z,898.00
2023-05-11T03:47:15.137Z,898.00
2023-05-11T03:48:14.177Z,899.00
2023-05-11T03:49:15.179Z,900.00
2023-05-11T03:50:15.252Z,900.00
2023-05-11T03:51:15.222Z,897.00
2023-05-11T03:52:15.229Z,896.00
2023-05-11T03:53:15.240Z,898.00
2023-05-11T03:54:15.249Z,899.00
2023-05-11T03:55:14.365Z,899.00
2023-05-11T03:56:15.306Z,900.00
2023-05-11T03:57:14.293Z,900.00
2023-05-11T03:58:15.336Z,898.00
2023-05-11T03:59:15.311Z,899.00
2023-05-11T04:00:15.391Z,898.00
2023-05-11T04:01:15.314Z,899.00
2023-05-11T04:02:15.314Z,899.00
2023-05-11T04:03:15.446Z,895.00
2023-05-11T04:04:14.431Z,896.00
2023-05-11T04:05:14.321Z,894.00
2023-05-11T04:06:15.371Z,892.00
2023-05-11T04:07:14.405Z,892.00
2023-05-11T04:08:15.447Z,890.00
2023-05-11T04:09:14.481Z,892.00
2023-05-11T04:10:14.489Z,895.00
2023-05-11T04:11:15.500Z,894.00
2023-05-11T04:12:15.486Z,893.00
2023-05-11T04:13:15.476Z,891.00
2023-05-11T04:14:15.483Z,888.00
2023-05-11T04:15:15.483Z,887.00
2023-05-11T04:16:15.505Z,885.00
2023-05-11T04:17:15.465Z,884.00
2023-05-11T04:18:15.461Z,884.00
2023-05-11T04:19:15.449Z,886.00
2023-05-11T04:20:15.535Z,888.00
2023-05-11T04:21:15.466Z,889.00
2023-05-11T04:22:15.452Z,888.00
2023-05-11T04:23:14.449Z,888.00
2023-05-11T04:24:15.422Z,888.00
2023-05-11T04:25:14.431Z,891.00
2023-05-11T04:26:15.439Z,891.00
2023-05-11T04:27:15.447Z,891.00
2023-05-11T04:28:15.411Z,889.00
2023-05-11T04:29:15.419Z,888.00
2023-05-11T04:30:15.421Z,888.00
2023-05-11T04:31:15.443Z,889.00
2023-05-11T04:32:15.400Z,888.00
2023-05-11T04:33:15.416Z,888.00
2023-05-11T04:34:15.430Z,887.00
2023-05-11T04:35:15.437Z,890.00
2023-05-11T04:36:14.475Z,892.00
2023-05-11T04:37:14.450Z,894.00
2023-05-11T04:38:14.443Z,893.00
2023-05-11T04:39:15.443Z,891.00
2023-05-11T04:40:15.456Z,891.00
2023-05-11T04:41:14.450Z,889.00
2023-05-11T04:42:15.456Z,887.00
2023-05-11T04:43:15.476Z,889.00
2023-05-11T04:44:15.323Z,888.00
2023-05-11T04:45:14.452Z,887.00
2023-05-11T04:46:15.505Z,889.00
2023-05-11T04:47:15.442Z,889.00
2023-05-11T04:48:16.894Z,890.00
2023-05-11T04:49:14.426Z,891.00
2023-05-11T04:50:15.418Z,886.00
2023-05-11T04:51:15.415Z,891.00
2023-05-11T04:52:15.413Z,891.00
2023-05-11T04:53:15.449Z,890.00
2023-05-11T04:54:15.391Z,887.00
2023-05-11T04:55:14.383Z,887.00
2023-05-11T04:56:14.390Z,890.00
2023-05-11T04:57:15.386Z,890.00
2023-05-11T04:58:15.372Z,892.00
2023-05-11T04:59:15.383Z,891.00
2023-05-11T05:00:15.394Z,892.00
2023-05-11T05:01:15.395Z,890.00
2023-05-11T05:02:15.334Z,892.00
2023-05-11T05:03:15.408Z,893.00
2023-05-11T05:04:15.390Z,892.00
2023-05-11T05:05:14.352Z,889.00
2023-05-11T05:06:15.324Z,889.00
2023-05-11T05:07:14.325Z,888.00
2023-05-11T05:08:15.298Z,889.00
2023-05-11T05:09:15.288Z,887.00
2023-05-11T05:10:15.311Z,888.00
2023-05-11T05:11:14.317Z,885.00
2023-05-11T05:12:15.274Z,884.00
2023-05-11T05:13:14.281Z,882.00
2023-05-11T05:14:15.278Z,882.00
2023-05-11T05:15:15.292Z,883.00
2023-05-11T05:16:15.286Z,883.00
2023-05-11T05:17:15.309Z,884.00
2023-05-11T05:18:15.300Z,887.00
2023-05-11T05:19:15.238Z,887.00
2023-05-11T05:20:14.221Z,890.00
2023-05-11T05:21:15.222Z,890.00
2023-05-11T05:22:15.208Z,888.00
2023-05-11T05:23:14.202Z,891.00
2023-05-11T05:24:14.198Z,889.00
2023-05-11T05:25:15.170Z,890.00
2023-05-11T05:26:15.192Z,890.00
2023-05-11T05:27:15.209Z,888.00
2023-05-11T05:28:14.156Z,889.00
2023-05-11T05:29:14.171Z,891.00
2023-05-11T05:30:15.166Z,893.00
2023-05-11T05:31:15.193Z,894.00
2023-05-11T05:32:14.317Z,892.00
2023-05-11T05:33:14.223Z,885.00
2023-05-11T05:34:16.435Z,788.00
2023-05-11T05:35:14.468Z,764.00
2023-05-11T05:36:15.383Z,739.00
2023-05-11T05:37:15.402Z,718.00
2023-05-11T05:38:15.424Z,693.00
2023-05-11T05:39:15.710Z,686.00
2023-05-11T05:40:15.833Z,670.00
2023-05-11T05:41:15.464Z,653.00
2023-05-11T05:42:15.489Z,643.00
2023-05-11T05:43:14.691Z,631.00
2023-05-11T05:44:15.832Z,623.00
2023-05-11T05:45:15.099Z,627.00
2023-05-11T05:46:15.485Z,630.00
2023-05-11T05:47:15.896Z,635.00
2023-05-11T05:48:16.189Z,655.00
2023-05-11T05:49:14.990Z,684.00
2023-05-11T05:50:16.042Z,676.00
2023-05-11T05:51:16.060Z,657.00
2023-05-11T05:52:16.000Z,672.00
2023-05-11T05:53:15.852Z,674.00
2023-05-11T05:54:16.220Z,678.00
2023-05-11T05:55:15.832Z,684.00
2023-05-11T05:56:15.845Z,746.00
2023-05-11T05:57:16.078Z,763.00
2023-05-11T05:58:15.863Z,783.00
2023-05-11T05:59:15.914Z,799.00
2023-05-11T06:00:16.224Z,842.00
2023-05-11T06:01:15.939Z,874.00
2023-05-11T06:02:16.009Z,897.00
2023-05-11T06:03:16.345Z,916.00
2023-05-11T06:04:15.186Z,988.00
2023-05-11T06:05:16.113Z,1010.00
2023-05-11T06:06:15.138Z,1046.00
2023-05-11T06:07:16.168Z,1059.00
2023-05-11T06:08:16.213Z,1078.00
2023-05-11T06:09:16.190Z,1106.00
2023-05-11T06:10:16.388Z,1181.00
2023-05-11T06:11:16.329Z,1190.00
2023-05-11T06:12:16.363Z,1198.00
2023-05-11T06:13:16.406Z,1215.00
2023-05-11T06:14:15.454Z,1227.00
2023-05-11T06:15:16.506Z,1261.00
2023-05-11T06:16:16.579Z,1280.00
2023-05-11T06:17:16.589Z,1298.00
2023-05-11T06:18:16.626Z,1326.00
2023-05-11T06:19:15.821Z,1341.00
2023-05-11T06:20:15.926Z,1366.00
2023-05-11T06:21:15.711Z,1380.00
2023-05-11T06:22:15.706Z,1423.00
2023-05-11T06:23:15.712Z,1455.00
2023-05-11T06:24:15.747Z,1464.00
2023-05-11T06:25:16.777Z,1481.00
2023-05-11T06:26:16.763Z,1529.00
2023-05-11T06:27:18.039Z,1548.00
2023-05-11T06:28:16.929Z,1559.00
2023-05-11T06:29:15.905Z,1572.00
2023-05-11T06:30:17.113Z,1596.00
2023-05-11T06:31:16.971Z,1626.00
2023-05-11T06:32:16.977Z,1662.00
2023-05-11T06:33:16.991Z,1683.00
2023-05-11T06:34:16.008Z,1707.00
2023-05-11T06:35:17.090Z,1750.00
2023-05-11T06:36:16.126Z,1766.00
2023-05-11T06:37:16.183Z,1785.00
2023-05-11T06:38:16.226Z,1822.00
2023-05-11T06:39:17.275Z,1841.00
2023-05-11T06:40:17.633Z,1858.00
2023-05-11T06:41:17.400Z,1867.00
2023-05-11T06:42:16.466Z,1887.00
2023-05-11T06:43:16.525Z,1918.00
2023-05-11T06:44:17.574Z,1945.00
2023-05-11T06:45:17.673Z,1994.00
2023-05-11T06:46:17.772Z,2007.00
2023-05-11T06:47:16.746Z,2015.00
2023-05-11T06:48:16.796Z,2054.00
2023-05-11T06:49:17.868Z,2074.00
2023-05-11T06:50:17.902Z,2096.00
2023-05-11T06:51:16.968Z,2134.00
2023-05-11T06:52:18.359Z,2153.00
2023-05-11T06:53:18.132Z,2167.00
2023-05-11T06:54:17.101Z,2186.00
2023-05-11T06:55:17.123Z,2179.00
2023-05-11T06:56:17.166Z,2176.00
2023-05-11T06:57:18.361Z,2184.00
2023-05-11T06:58:18.209Z,2192.00
2023-05-11T06:59:18.212Z,2296.00
2023-05-11T07:00:18.649Z,2334.00
2023-05-11T07:01:17.390Z,2411.00
2023-05-11T07:02:17.381Z,2436.00
2023-05-11T07:03:18.473Z,2443.00
2023-05-11T07:04:17.506Z,2451.00
2023-05-11T07:05:18.541Z,2465.00
2023-05-11T07:06:18.613Z,2485.00
2023-05-11T07:07:18.640Z,2531.00
2023-05-11T07:08:18.681Z,2550.00
2023-05-11T07:09:17.731Z,2568.00
2023-05-11T07:10:17.960Z,2582.00
2023-05-11T07:11:17.825Z,2603.00
2023-05-11T07:12:17.856Z,2623.00
2023-05-11T07:13:17.911Z,2708.00
2023-05-11T07:14:17.929Z,2709.00
2023-05-11T07:15:17.978Z,2735.00
2023-05-11T07:16:19.013Z,2762.00
2023-05-11T07:17:18.020Z,2783.00
2023-05-11T07:18:19.171Z,2794.00
2023-05-11T07:19:18.094Z,2818.00
2023-05-11T07:20:18.500Z,2840.00
2023-05-11T07:21:19.127Z,2866.00
2023-05-11T07:22:19.168Z,2892.00
2023-05-11T07:23:19.163Z,2919.00
2023-05-11T07:24:19.169Z,2948.00
2023-05-11T07:25:18.182Z,2955.00
2023-05-11T07:26:19.250Z,2973.00
2023-05-11T07:27:19.231Z,3001.00
2023-05-11T07:28:19.252Z,3028.00
2023-05-11T07:29:18.273Z,3042.00
2023-05-11T07:30:19.331Z,3062.00
2023-05-11T07:31:18.336Z,3106.00
2023-05-11T07:32:19.328Z,3117.00
2023-05-11T07:33:18.340Z,3132.00
2023-05-11T07:34:19.355Z,3164.00
2023-05-11T07:35:19.820Z,3177.00
2023-05-11T07:36:18.377Z,3189.00
2023-05-11T07:37:18.409Z,3214.00
2023-05-11T07:38:19.483Z,3234.00
2023-05-11T07:39:19.433Z,3248.00
2023-05-11T07:40:19.690Z,3264.00
2023-05-11T07:41:19.479Z,3282.00
2023-05-11T07:42:18.502Z,3301.00
2023-05-11T07:43:19.516Z,3332.00
2023-05-11T07:44:18.522Z,3351.00
2023-05-11T07:45:18.533Z,3372.00
2023-05-11T07:46:19.578Z,3389.00
2023-05-11T07:47:19.901Z,3414.00
2023-05-11T07:48:19.594Z,3430.00
2023-05-11T07:49:27.987Z,3421.00
2023-05-11T07:50:23.879Z,3409.00
2023-05-11T07:51:19.604Z,3398.00
2023-05-11T07:52:18.897Z,3395.00
2023-05-11T07:53:19.594Z,3390.00
2023-05-11T07:54:21.663Z,3388.00
2023-05-11T07:55:19.961Z,3382.00
2023-05-11T07:56:19.566Z,3379.00
2023-05-11T07:57:18.567Z,3378.00
2023-05-11T07:58:19.552Z,3376.00
2023-05-11T07:59:19.546Z,3372.00
2023-05-11T08:00:18.809Z,3366.00
2023-05-11T08:01:18.536Z,3366.00
2023-05-11T08:02:19.602Z,3366.00
2023-05-11T08:03:18.579Z,3362.00
2023-05-11T08:04:18.513Z,3359.00
2023-05-11T08:05:19.976Z,3351.00
2023-05-11T08:06:19.539Z,3347.00
2023-05-11T08:07:18.509Z,3346.00
2023-05-11T08:08:19.495Z,3340.00
2023-05-11T08:09:18.501Z,3336.00
2023-05-11T08:10:19.502Z,3339.00
2023-05-11T08:11:18.515Z,3341.00
2023-05-11T08:12:18.496Z,3338.00
2023-05-11T08:13:20.127Z,3327.00
2023-05-11T08:14:18.445Z,3310.00
2023-05-11T08:15:19.637Z,3299.00
2023-05-11T08:16:19.511Z,3288.00
2023-05-11T08:17:19.449Z,3284.00
2023-05-11T08:18:19.478Z,3278.00
2023-05-11T08:19:19.440Z,3273.00
2023-05-11T08:20:19.419Z,3258.00
2023-05-11T08:21:19.408Z,3244.00
2023-05-11T08:22:19.409Z,3232.00
2023-05-11T08:23:19.395Z,3222.00
2023-05-11T08:24:19.472Z,3210.00
2023-05-11T08:25:19.654Z,3200.00
2023-05-11T08:26:19.381Z,3185.00
2023-05-11T08:27:19.369Z,3170.00
2023-05-11T08:28:19.414Z,3164.00
2023-05-11T08:29:18.397Z,3151.00
2023-05-11T08:30:19.419Z,3131.00
2023-05-11T08:31:19.470Z,3120.00
2023-05-11T08:32:19.549Z,3108.00
2023-05-11T08:34:20.040Z,3088.00
2023-05-11T08:35:18.672Z,3076.00
2023-05-11T08:36:19.496Z,2981.00
2023-05-11T08:37:19.506Z,2588.00
2023-05-11T08:38:18.503Z,1694.00
2023-05-11T08:39:38.491Z,1366.00
2023-05-11T08:40:19.501Z,1168.00
2023-05-11T08:41:19.443Z,1078.00
2023-05-11T08:42:18.474Z,940.00
2023-05-11T08:43:19.910Z,934.00
2023-05-11T08:44:19.432Z,934.00
2023-05-11T08:45:19.678Z,752.00
2023-05-11T08:46:19.568Z,758.00
2023-05-11T08:47:23.227Z,650.00
2023-05-11T08:48:19.417Z,730.00
2023-05-11T08:49:19.398Z,699.00
2023-05-11T08:50:19.365Z,713.00
2023-05-11T08:51:19.370Z,706.00
2023-05-11T08:52:19.366Z,697.00
2023-05-11T08:53:19.356Z,647.00
2023-05-11T08:54:19.342Z,652.00
2023-05-11T08:55:19.596Z,713.00
2023-05-11T08:56:18.344Z,765.00
2023-05-11T08:57:18.341Z,915.00
2023-05-11T08:58:19.653Z,963.00
2023-05-11T08:59:19.305Z,1049.00
2023-05-11T09:00:18.328Z,1075.00
2023-05-11T09:01:19.342Z,1095.00
2023-05-11T09:02:19.338Z,1146.00
2023-05-11T09:03:19.314Z,1164.00
2023-05-11T09:04:19.345Z,1213.00
2023-05-11T09:05:19.607Z,1209.00
2023-05-11T09:06:19.366Z,1206.00
2023-05-11T09:07:19.393Z,1169.00
2023-05-11T09:08:19.386Z,1163.00
2023-05-11T09:09:19.393Z,1169.00
2023-05-11T09:10:18.384Z,1155.00
2023-05-11T09:11:18.401Z,1152.00
2023-05-11T09:12:19.382Z,1149.00
2023-05-11T09:13:18.411Z,1153.00
2023-05-11T09:14:18.488Z,1150.00
2023-05-11T09:15:19.632Z,1115.00
2023-05-11T09:16:35.726Z,1130.00
2023-05-11T09:17:19.499Z,1093.00
2023-05-11T09:18:19.528Z,1113.00
2023-05-11T09:19:19.469Z,1128.00
2023-05-11T09:20:18.660Z,1136.00
2023-05-11T09:21:18.455Z,1142.00
2023-05-11T09:22:19.485Z,1142.00
2023-05-11T09:23:19.454Z,1131.00
2023-05-11T09:24:19.432Z,1128.00
2023-05-11T09:25:18.638Z,1126.00
2023-05-11T09:26:19.415Z,1124.00
2023-05-11T09:27:21.678Z,1104.00
2023-05-11T09:29:19.397Z,1105.00
2023-05-11T09:31:18.473Z,1081.00
2023-05-11T09:32:19.406Z,1077.00
2023-05-11T09:33:19.375Z,1079.00
2023-05-11T09:34:19.372Z,1010.00
2023-05-11T09:35:18.547Z,1049.00
2023-05-11T09:36:19.340Z,1088.00
2023-05-11T09:37:18.408Z,1091.00
2023-05-11T09:38:19.328Z,1005.00
2023-05-11T09:40:27.036Z,1043.00
2023-05-11T09:41:19.366Z,1087.00
2023-05-11T09:42:19.336Z,1037.00
2023-05-11T09:43:18.302Z,1085.00
2023-05-11T09:44:18.369Z,1093.00
2023-05-11T09:45:18.502Z,1092.00
2023-05-11T09:46:19.341Z,1103.00
2023-05-11T09:47:19.366Z,1026.00
2023-05-11T09:48:19.473Z,969.00
2023-05-11T09:49:19.252Z,844.00
2023-05-11T09:50:26.456Z,836.00
2023-05-11T09:51:19.258Z,829.00
2023-05-11T09:52:19.233Z,917.00
2023-05-11T09:53:18.230Z,953.00
2023-05-11T09:54:19.510Z,1018.00
2023-05-11T09:55:19.470Z,1072.00
2023-05-11T09:56:19.201Z,1143.00
2023-05-11T09:57:19.196Z,1168.00
2023-05-11T09:58:18.184Z,1191.00
2023-05-11T09:59:18.210Z,1210.00
2023-05-11T10:00:19.212Z,1240.00
2023-05-11T10:01:19.226Z,1258.00
2023-05-11T10:02:19.235Z,1293.00
2023-05-11T10:03:19.331Z,1317.00
2023-05-11T10:04:23.762Z,1340.00
2023-05-11T10:05:19.341Z,1381.00
2023-05-11T10:06:20.080Z,1405.00
2023-05-11T10:07:18.115Z,1433.00
2023-05-11T10:08:18.110Z,1461.00
2023-05-11T10:09:18.140Z,1499.00
2023-05-11T10:10:18.193Z,1522.00
2023-05-11T10:11:19.289Z,1545.00
2023-05-11T10:12:19.296Z,1590.00
2023-05-11T10:13:19.354Z,1619.00
2023-05-11T10:14:18.411Z,1639.00
2023-05-11T10:15:19.644Z,1651.00
2023-05-11T10:16:18.535Z,1670.00
2023-05-11T10:17:19.559Z,1703.00
2023-05-11T10:18:20.274Z,1734.00
2023-05-11T10:19:19.636Z,1756.00
2023-05-11T10:20:18.894Z,1769.00
2023-05-11T10:21:19.665Z,1786.00
2023-05-11T10:22:18.746Z,1795.00
2023-05-11T10:23:19.755Z,1836.00
2023-05-11T10:24:22.776Z,1878.00
2023-05-11T10:25:18.764Z,1904.00
2023-05-11T10:26:19.741Z,1927.00
2023-05-11T10:27:18.752Z,1964.00
2023-05-11T10:28:19.728Z,1968.00
2023-05-11T10:29:18.730Z,1980.00
2023-05-11T10:30:18.953Z,1992.00
2023-05-11T10:31:19.723Z,2005.00
2023-05-11T10:32:18.691Z,2020.00
2023-05-11T10:33:19.700Z,2045.00
2023-05-11T10:34:19.708Z,2085.00
2023-05-11T10:35:19.679Z,2114.00
2023-05-11T10:36:19.910Z,2139.00
2023-05-11T10:37:19.673Z,2157.00
2023-05-11T10:38:19.650Z,2178.00
2023-05-11T10:39:19.666Z,2194.00
2023-05-11T10:40:19.948Z,2222.00
2023-05-11T10:41:19.641Z,2237.00
2023-05-11T10:42:18.649Z,2253.00
2023-05-11T10:43:19.609Z,2266.00
2023-05-11T10:44:19.945Z,2283.00
2023-05-11T10:45:18.615Z,2349.00
2023-05-11T10:46:19.680Z,2376.00
2023-05-11T10:47:18.612Z,2398.00
2023-05-11T10:48:19.624Z,2410.00
2023-05-11T10:49:18.964Z,2411.00
2023-05-11T10:50:19.971Z,2427.00
2023-05-11T10:51:19.559Z,2436.00
2023-05-11T10:52:19.570Z,2437.00
2023-05-11T10:53:19.575Z,2414.00
2023-05-11T10:54:18.566Z,2357.00
2023-05-11T10:55:18.895Z,2336.00
2023-05-11T10:56:19.541Z,2301.00
2023-05-11T10:57:18.523Z,2224.00
2023-05-11T10:58:19.890Z,2060.00
2023-05-11T10:59:18.688Z,1939.00
2023-05-11T11:00:19.315Z,1726.00
2023-05-11T11:01:19.591Z,1840.00
2023-05-11T11:02:18.500Z,1889.00
2023-05-11T11:03:19.501Z,1893.00
2023-05-11T11:04:19.500Z,1696.00
2023-05-11T11:05:19.735Z,1327.00
2023-05-11T11:06:18.500Z,1272.00
2023-05-11T11:07:19.500Z,1293.00
2023-05-11T11:08:19.518Z,1285.00
2023-05-11T11:09:18.456Z,1604.00
2023-05-11T11:10:18.584Z,1642.00
2023-05-11T11:11:19.434Z,1631.00
2023-05-11T11:12:19.425Z,1587.00
2023-05-11T11:13:18.427Z,1545.00
2023-05-11T11:14:18.441Z,1549.00
2023-05-11T11:15:18.640Z,1544.00
2023-05-11T11:16:18.532Z,1542.00
2023-05-11T11:17:19.751Z,1537.00
2023-05-11T11:18:19.685Z,1528.00
2023-05-11T11:19:19.709Z,1520.00
2023-05-11T11:20:19.757Z,1511.00
2023-05-11T11:21:18.821Z,1442.00
2023-05-11T11:22:19.906Z,1460.00
2023-05-11T11:23:19.943Z,1465.00
2023-05-11T11:24:19.002Z,1459.00
2023-05-11T11:25:19.291Z,1446.00
2023-05-11T11:26:20.114Z,1427.00
2023-05-11T11:27:20.156Z,1427.00
2023-05-11T11:28:20.193Z,1419.00
2023-05-11T11:29:19.245Z,1414.00
2023-05-11T11:30:20.357Z,1415.00
2023-05-11T11:31:20.396Z,1409.00
2023-05-11T11:32:19.390Z,1399.00
2023-05-11T11:33:20.428Z,1384.00
2023-05-11T11:34:20.523Z,1375.00
2023-05-11T11:35:20.556Z,1378.00
2023-05-11T11:36:19.609Z,1380.00
2023-05-11T11:37:20.659Z,1271.00
2023-05-11T11:38:20.751Z,1348.00
2023-05-11T11:39:19.993Z,1343.00
2023-05-11T11:40:20.676Z,1353.00
2023-05-11T11:41:19.662Z,1356.00
2023-05-11T11:42:20.701Z,1360.00
2023-05-11T11:43:19.693Z,1360.00
2023-05-11T11:44:20.719Z,1355.00
2023-05-11T11:45:19.835Z,1351.00
2023-05-11T11:46:20.736Z,1347.00
2023-05-11T11:47:19.744Z,1347.00
2023-05-11T11:48:20.731Z,1347.00
2023-05-11T11:49:19.755Z,1347.00
2023-05-11T11:50:19.784Z,1346.00
2023-05-11T11:51:20.781Z,1346.00
2023-05-11T11:52:20.793Z,1347.00
2023-05-11T11:53:20.819Z,1346.00
2023-05-11T11:54:19.865Z,1339.00
2023-05-11T11:55:20.860Z,1338.00
2023-05-11T11:56:20.881Z,1338.00
2023-05-11T11:57:19.897Z,1339.00
2023-05-11T11:58:20.916Z,1336.00
2023-05-11T11:59:20.939Z,1332.00
2023-05-11T12:00:19.964Z,1328.00
2023-05-11T12:01:19.995Z,1323.00
2023-05-11T12:02:21.015Z,1321.00
2023-05-11T12:03:20.208Z,1318.00
2023-05-11T12:04:21.125Z,1321.00
2023-05-11T12:05:20.628Z,1321.00
2023-05-11T12:06:21.166Z,1317.00
2023-05-11T12:07:21.206Z,1316.00
2023-05-11T12:08:20.236Z,1314.00
2023-05-11T12:09:21.335Z,1311.00
2023-05-11T12:10:20.419Z,1304.00
2023-05-11T12:11:20.368Z,1302.00
2023-05-11T12:12:21.440Z,1297.00
2023-05-11T12:13:20.475Z,1295.00
2023-05-11T12:14:21.531Z,1292.00
2023-05-11T12:15:20.720Z,1289.00
2023-05-11T12:16:20.670Z,1290.00
2023-05-11T12:17:21.687Z,1292.00
2023-05-11T12:18:21.727Z,1290.00
2023-05-11T12:19:20.765Z,1289.00
2023-05-11T12:20:21.800Z,1288.00
2023-05-11T12:21:21.800Z,1288.00